createdAt,value
2023-01-18T00:00:10.343Z,54.11
2023-01-18T00:02:37.388Z,54.05
2023-01-18T00:05:04.268Z,54.02
2023-01-18T00:07:31.466Z,54.05
2023-01-18T00:09:57.962Z,54.07
2023-01-18T00:12:24.433Z,53.95
2023-01-18T00:14:50.914Z,54.18
2023-01-18T00:17:17.404Z,54.17
2023-01-18T00:19:43.952Z,53.99
2023-01-18T00:22:10.431Z,54.03
2023-01-18T00:24:37.011Z,53.94
2023-01-18T00:27:03.555Z,54.01
2023-01-18T00:29:30.929Z,53.95
2023-01-18T00:31:57.519Z,53.92
2023-01-18T00:34:24.146Z,53.95
2023-01-18T00:36:50.657Z,54.02
2023-01-18T00:39:17.310Z,54.04
2023-01-18T00:42:03.809Z,53.95
2023-01-18T00:44:30.315Z,53.97
2023-01-18T00:46:56.835Z,53.96
2023-01-18T00:49:23.997Z,53.94
2023-01-18T00:51:52.234Z,53.85
2023-01-18T00:54:19.081Z,53.67
2023-01-18T00:56:45.549Z,53.76
2023-01-18T00:59:12.280Z,53.93
2023-01-18T01:01:39.005Z,53.87
2023-01-18T01:04:24.279Z,53.84
2023-01-18T01:06:51.730Z,53.81
2023-01-18T01:09:27.485Z,53.82
2023-01-18T01:12:13.499Z,54.04
2023-01-18T01:15:01.623Z,53.73
2023-01-18T01:17:48.564Z,53.86
2023-01-18T01:20:33.998Z,53.66
2023-01-18T01:23:30.156Z,53.98
2023-01-18T01:26:10.667Z,53.71
2023-01-18T01:28:39.828Z,53.77
2023-01-18T01:31:08.827Z,53.75
2023-01-18T01:33:36.183Z,53.79
2023-01-18T01:36:06.997Z,53.82
2023-01-18T01:38:33.597Z,53.76
2023-01-18T01:41:04.953Z,53.83
2023-01-18T01:43:49.551Z,53.71
2023-01-18T01:46:57.242Z,53.70
2023-01-18T01:49:32.100Z,53.89
2023-01-18T01:52:10.823Z,53.85
2023-01-18T01:54:44.148Z,53.99
2023-01-18T01:57:17.141Z,53.84
2023-01-18T01:59:50.032Z,53.95
2023-01-18T02:02:16.882Z,53.87
2023-01-18T02:04:45.147Z,53.84
2023-01-18T02:07:12.479Z,53.91
2023-01-18T02:09:39.494Z,53.84
2023-01-18T02:12:06.129Z,53.98
2023-01-18T02:14:32.782Z,53.91
2023-01-18T02:17:05.454Z,53.81
2023-01-18T02:19:56.695Z,53.92
2023-01-18T02:22:47.441Z,54.00
2023-01-18T02:25:28.868Z,53.98
2023-01-18T02:28:30.377Z,54.06
2023-01-18T02:31:12.163Z,53.98
2023-01-18T02:34:16.446Z,54.03
2023-01-18T02:37:07.398Z,54.10
2023-01-18T02:39:44.096Z,54.17
2023-01-18T02:42:37.449Z,54.21
2023-01-18T02:45:32.127Z,54.22
2023-01-18T02:48:00.708Z,54.27
2023-01-18T02:50:27.704Z,53.97
2023-01-18T02:52:54.813Z,54.28
2023-01-18T02:55:43.913Z,54.21
2023-01-18T02:58:45.823Z,54.08
2023-01-18T03:01:22.378Z,54.13
2023-01-18T03:03:50.907Z,54.18
2023-01-18T03:06:20.149Z,54.11
2023-01-18T03:08:51.365Z,54.25
2023-01-18T03:11:33.465Z,54.19
2023-01-18T03:14:21.193Z,54.10
2023-01-18T03:17:03.280Z,54.05
2023-01-18T03:19:57.755Z,53.96
2023-01-18T03:22:46.619Z,53.89
2023-01-18T03:25:18.137Z,53.87
2023-01-18T03:28:06.413Z,54.08
2023-01-18T03:30:53.268Z,53.94
2023-01-18T03:33:42.743Z,54.01
2023-01-18T03:36:24.354Z,54.07
2023-01-18T03:39:00.632Z,54.08
2023-01-18T03:41:31.234Z,54.24
2023-01-18T03:44:03.779Z,54.18
2023-01-18T03:46:32.694Z,54.27
2023-01-18T03:48:59.974Z,54.21
2023-01-18T03:51:38.938Z,54.23
2023-01-18T03:54:20.046Z,54.14
2023-01-18T03:56:53.861Z,54.26
2023-01-18T03:59:21.666Z,54.27
2023-01-18T04:01:49.065Z,54.30
2023-01-18T04:04:15.701Z,54.13
2023-01-18T04:06:42.440Z,54.09
2023-01-18T04:09:09.036Z,54.07
2023-01-18T04:11:35.758Z,54.10
2023-01-18T04:14:02.310Z,54.04
2023-01-18T04:16:28.846Z,54.03
2023-01-18T04:18:55.398Z,54.22
2023-01-18T04:21:21.986Z,54.25
2023-01-18T04:23:48.555Z,54.14
2023-01-18T04:26:16.698Z,54.30
2023-01-18T04:28:43.403Z,54.22
2023-01-18T04:31:09.978Z,54.15
2023-01-18T04:33:36.542Z,54.31
2023-01-18T04:36:03.223Z,54.10
2023-01-18T04:38:29.747Z,54.30
2023-01-18T04:40:56.237Z,54.29
2023-01-18T04:43:22.753Z,54.32
2023-01-18T04:45:54.435Z,54.32
2023-01-18T04:48:21.543Z,54.25
2023-01-18T04:50:48.501Z,54.30
2023-01-18T04:53:16.599Z,54.47
2023-01-18T04:55:43.728Z,54.40
2023-01-18T04:58:10.473Z,54.47
2023-01-18T05:00:40.179Z,54.21
2023-01-18T05:03:11.111Z,54.24
2023-01-18T05:05:37.718Z,54.49
2023-01-18T05:08:04.335Z,54.42
2023-01-18T05:10:31.013Z,54.23
2023-01-18T05:12:58.056Z,54.42
2023-01-18T05:15:24.753Z,54.27
2023-01-18T05:17:51.336Z,54.26
2023-01-18T05:20:18.046Z,54.30
2023-01-18T05:22:44.602Z,54.33
2023-01-18T05:25:11.114Z,54.28
2023-01-18T05:27:37.761Z,54.37
2023-01-18T05:30:06.694Z,54.46
2023-01-18T05:32:33.470Z,54.34
2023-01-18T05:35:00.036Z,54.32
2023-01-18T05:37:26.580Z,54.35
2023-01-18T05:39:53.129Z,54.36
2023-01-18T05:42:19.684Z,54.34
2023-01-18T05:44:46.210Z,54.28
2023-01-18T05:47:12.789Z,54.49
2023-01-18T05:49:41.739Z,54.42
2023-01-18T05:52:08.641Z,54.46
2023-01-18T05:54:35.197Z,54.51
2023-01-18T05:57:01.791Z,54.54
2023-01-18T05:59:28.251Z,54.76
2023-01-18T06:01:54.831Z,54.68
2023-01-18T06:04:22.151Z,54.68
2023-01-18T06:06:48.722Z,54.60
2023-01-18T06:09:15.282Z,54.74
2023-01-18T06:11:41.764Z,54.71
2023-01-18T06:14:08.830Z,54.57
2023-01-18T06:16:35.515Z,54.59
2023-01-18T06:19:02.134Z,54.70
2023-01-18T06:21:28.690Z,54.52
2023-01-18T06:23:55.224Z,54.45
2023-01-18T06:26:23.757Z,54.66
2023-01-18T06:28:50.331Z,54.60
2023-01-18T06:31:16.972Z,54.50
2023-01-18T06:33:43.485Z,54.63
2023-01-18T06:36:10.295Z,54.33
2023-01-18T06:38:36.769Z,54.38
2023-01-18T06:41:03.365Z,54.47
2023-01-18T06:43:30.075Z,54.45
2023-01-18T06:45:57.413Z,54.50
2023-01-18T06:48:25.214Z,54.54
2023-01-18T06:50:55.084Z,54.42
2023-01-18T06:53:22.310Z,54.65
2023-01-18T06:55:59.919Z,54.54
2023-01-18T06:58:27.536Z,54.62
2023-01-18T07:00:59.418Z,54.64
2023-01-18T07:03:27.702Z,54.56
2023-01-18T07:05:55.029Z,54.50
2023-01-18T07:08:21.619Z,54.53
2023-01-18T07:10:48.686Z,54.50
2023-01-18T07:13:15.457Z,54.53
2023-01-18T07:15:42.185Z,54.46
2023-01-18T07:18:08.689Z,54.73
2023-01-18T07:20:35.251Z,54.62
2023-01-18T07:23:02.677Z,54.57
2023-01-18T07:25:32.092Z,54.75
2023-01-18T07:27:58.772Z,54.83
2023-01-18T07:30:25.858Z,54.91
2023-01-18T07:32:53.292Z,55.10
2023-01-18T07:35:23.880Z,55.14
2023-01-18T07:37:53.464Z,55.18
2023-01-18T07:40:21.329Z,55.17
2023-01-18T07:42:48.983Z,55.38
2023-01-18T07:45:15.666Z,55.38
2023-01-18T07:47:43.101Z,55.49
2023-01-18T07:50:10.481Z,55.32
2023-01-18T07:52:37.043Z,55.44
2023-01-18T07:55:06.478Z,55.54
2023-01-18T07:57:33.235Z,55.39
2023-01-18T07:59:59.783Z,55.33
2023-01-18T08:02:26.260Z,55.30
2023-01-18T08:04:52.740Z,55.03
2023-01-18T08:07:19.902Z,55.19
2023-01-18T08:09:46.576Z,54.89
2023-01-18T08:12:17.920Z,54.80
2023-01-18T08:14:46.099Z,55.14
2023-01-18T08:17:12.736Z,54.94
2023-01-18T08:19:39.400Z,55.09
2023-01-18T08:22:07.758Z,54.90
2023-01-18T08:24:34.301Z,54.79
2023-01-18T08:27:00.878Z,54.65
2023-01-18T08:29:27.436Z,54.59
2023-01-18T08:31:54.510Z,54.44
2023-01-18T08:34:21.835Z,54.40
2023-01-18T08:36:48.485Z,54.35
2023-01-18T08:39:15.044Z,54.29
2023-01-18T08:41:41.975Z,54.35
2023-01-18T08:44:08.465Z,54.52
2023-01-18T08:46:36.394Z,54.37
2023-01-18T08:49:05.733Z,54.31
2023-01-18T08:51:32.649Z,54.43
2023-01-18T08:53:59.814Z,54.60
2023-01-18T08:56:26.630Z,54.54
2023-01-18T08:58:53.559Z,54.78
2023-01-18T09:01:23.000Z,55.01
2023-01-18T09:03:50.520Z,54.88
2023-01-18T09:06:21.179Z,54.80
2023-01-18T09:08:48.589Z,54.90
2023-01-18T09:11:15.920Z,54.99
2023-01-18T09:13:59.353Z,54.98
2023-01-18T09:16:26.890Z,55.18
2023-01-18T09:18:55.438Z,55.04
2023-01-18T09:21:22.369Z,55.21
2023-01-18T09:23:49.449Z,55.20
2023-01-18T09:26:17.235Z,55.44
2023-01-18T09:28:47.223Z,55.32
2023-01-18T09:31:13.839Z,55.31
2023-01-18T09:33:48.317Z,55.43
2023-01-18T09:36:21.469Z,55.34
2023-01-18T09:38:48.085Z,55.30
2023-01-18T09:41:36.507Z,55.04
2023-01-18T09:44:16.662Z,54.78
2023-01-18T09:46:45.042Z,54.80
2023-01-18T09:49:20.041Z,54.60
2023-01-18T09:51:56.885Z,54.56
2023-01-18T09:54:40.598Z,54.45
2023-01-18T09:57:44.735Z,54.38
2023-01-18T10:00:25.054Z,54.34
2023-01-18T10:02:57.311Z,54.20
2023-01-18T10:05:28.389Z,54.27
2023-01-18T10:08:04.378Z,54.24
2023-01-18T10:10:40.556Z,54.33
2023-01-18T10:13:23.494Z,54.39
2023-01-18T10:15:50.235Z,54.30
2023-01-18T10:18:18.665Z,54.30
2023-01-18T10:20:51.790Z,54.33
2023-01-18T10:23:34.900Z,54.19
2023-01-18T10:26:27.046Z,54.10
2023-01-18T10:29:15.728Z,54.15
2023-01-18T10:32:04.169Z,54.20
2023-01-18T10:34:33.400Z,54.21
2023-01-18T10:37:40.144Z,54.27
2023-01-18T10:40:10.196Z,54.29
2023-01-18T10:42:43.456Z,54.17
2023-01-18T10:45:21.302Z,54.42
2023-01-18T10:47:53.169Z,54.20
2023-01-18T10:50:36.713Z,54.08
2023-01-18T10:53:21.489Z,54.18
2023-01-18T10:56:00.034Z,54.15
2023-01-18T10:58:43.386Z,53.92
2023-01-18T11:01:20.226Z,53.72
2023-01-18T11:03:51.139Z,53.63
2023-01-18T11:06:20.549Z,53.52
2023-01-18T11:08:48.962Z,53.59
2023-01-18T11:11:47.413Z,53.42
2023-01-18T11:14:29.552Z,53.53
2023-01-18T11:17:11.581Z,53.30
2023-01-18T11:19:39.481Z,53.21
2023-01-18T11:22:15.766Z,53.36
2023-01-18T11:24:43.030Z,53.24
2023-01-18T11:27:18.942Z,52.97
2023-01-18T11:29:46.492Z,53.19
2023-01-18T11:32:26.738Z,53.05
2023-01-18T11:34:55.897Z,52.89
2023-01-18T11:37:34.395Z,52.93
2023-01-18T11:40:36.644Z,52.39
2023-01-18T11:43:05.734Z,52.52
2023-01-18T11:45:40.891Z,52.43
2023-01-18T11:48:30.108Z,52.10
2023-01-18T11:51:08.555Z,52.27
2023-01-18T11:54:03.283Z,52.22
2023-01-18T11:56:40.762Z,52.20
2023-01-18T11:59:18.767Z,51.74
2023-01-18T12:02:03.285Z,52.12
2023-01-18T12:04:33.082Z,51.81
2023-01-18T12:07:24.602Z,51.94
2023-01-18T12:09:57.890Z,51.84
2023-01-18T12:12:35.583Z,51.74
2023-01-18T12:15:22.524Z,51.58
2023-01-18T12:18:13.276Z,51.59
2023-01-18T12:21:01.564Z,51.83
2023-01-18T12:23:50.081Z,51.40
2023-01-18T12:26:35.890Z,51.58
2023-01-18T12:29:21.862Z,51.75
2023-01-18T12:32:13.766Z,51.68
2023-01-18T12:35:19.052Z,51.48
2023-01-18T12:38:14.238Z,51.58
2023-01-18T12:41:16.380Z,51.53
2023-01-18T12:44:13.944Z,51.20
2023-01-18T12:46:49.271Z,51.12
2023-01-18T12:49:19.187Z,51.23
2023-01-18T12:51:50.378Z,50.90
2023-01-18T12:54:34.527Z,50.71
2023-01-18T12:57:02.035Z,50.60
2023-01-18T12:59:34.736Z,50.83
2023-01-18T13:02:21.344Z,50.62
2023-01-18T13:05:04.337Z,50.31
2023-01-18T13:07:35.733Z,50.44
2023-01-18T13:10:02.788Z,50.20
2023-01-18T13:12:29.633Z,50.41
2023-01-18T13:15:21.692Z,50.18
2023-01-18T13:17:56.092Z,49.88
2023-01-18T13:20:36.602Z,49.83
2023-01-18T13:23:18.544Z,49.89
2023-01-18T13:26:01.595Z,49.72
2023-01-18T13:28:28.653Z,49.53
2023-01-18T13:31:03.098Z,49.85
2023-01-18T13:33:32.608Z,49.57
2023-01-18T13:36:07.899Z,49.29
2023-01-18T13:38:41.557Z,49.48
2023-01-18T13:41:13.250Z,49.24
2023-01-18T13:43:41.218Z,49.26
2023-01-18T13:46:07.760Z,49.35
2023-01-18T13:48:57.519Z,49.22
2023-01-18T13:51:33.266Z,49.20
2023-01-18T13:53:59.853Z,49.31
2023-01-18T13:56:28.118Z,49.25
2023-01-18T13:59:00.365Z,49.39
2023-01-18T14:01:32.705Z,49.36
2023-01-18T14:04:19.047Z,49.33
2023-01-18T14:06:46.701Z,49.32
2023-01-18T14:09:16.089Z,49.16
2023-01-18T14:11:52.286Z,49.28
2023-01-18T14:14:19.600Z,49.09
2023-01-18T14:16:59.837Z,49.29
2023-01-18T14:19:28.455Z,49.03
2023-01-18T14:22:07.284Z,49.08
2023-01-18T14:24:52.695Z,49.30
2023-01-18T14:27:25.514Z,49.25
2023-01-18T14:30:12.708Z,49.25
2023-01-18T14:32:46.033Z,49.16
2023-01-18T14:35:20.535Z,49.05
2023-01-18T14:37:47.094Z,49.28
2023-01-18T14:40:18.715Z,48.95
2023-01-18T14:42:59.190Z,49.35
2023-01-18T14:45:30.978Z,49.08
2023-01-18T14:48:12.819Z,49.41
2023-01-18T14:50:45.758Z,49.16
2023-01-18T14:53:25.340Z,49.29
2023-01-18T14:56:14.685Z,49.29
2023-01-18T14:58:44.730Z,49.34
2023-01-18T15:01:28.343Z,49.39
2023-01-18T15:03:57.115Z,49.46
2023-01-18T15:06:35.536Z,49.46
2023-01-18T15:09:05.693Z,49.40
2023-01-18T15:11:34.372Z,49.44
2023-01-18T15:14:01.158Z,49.52
2023-01-18T15:16:31.067Z,49.48
2023-01-18T15:19:02.001Z,49.39
2023-01-18T15:21:31.984Z,49.48
2023-01-18T15:24:05.037Z,49.39
2023-01-18T15:26:52.748Z,49.54
2023-01-18T15:29:25.030Z,49.57
2023-01-18T15:31:56.256Z,49.52
2023-01-18T15:34:32.829Z,49.50
2023-01-18T15:37:01.299Z,49.56
2023-01-18T15:39:27.983Z,49.49
2023-01-18T15:41:57.045Z,49.32
2023-01-18T15:44:32.355Z,49.59
2023-01-18T15:46:59.063Z,49.60
2023-01-18T15:49:25.667Z,49.65
2023-01-18T15:51:52.671Z,49.67
2023-01-18T15:54:26.884Z,49.63
2023-01-18T15:56:57.889Z,49.65
2023-01-18T15:59:27.040Z,49.78
2023-01-18T16:02:12.987Z,49.95
2023-01-18T16:04:40.699Z,49.97
2023-01-18T16:07:37.525Z,50.04
2023-01-18T16:10:30.190Z,50.04
2023-01-18T16:13:22.801Z,50.15
2023-01-18T16:16:15.525Z,50.21
2023-01-18T16:19:11.375Z,50.04
2023-01-18T16:21:44.619Z,50.04
2023-01-18T16:24:16.595Z,50.34
2023-01-18T16:26:44.077Z,50.40
2023-01-18T16:29:10.816Z,50.38
2023-01-18T16:31:41.418Z,50.36
2023-01-18T16:34:18.701Z,50.61
2023-01-18T16:36:45.298Z,50.55
2023-01-18T16:39:11.893Z,50.62
2023-01-18T16:41:41.820Z,50.66
2023-01-18T16:44:11.379Z,50.67
2023-01-18T16:46:38.039Z,50.69
2023-01-18T16:49:09.649Z,50.70
2023-01-18T16:51:36.249Z,50.84
2023-01-18T16:54:02.815Z,50.92
2023-01-18T16:56:29.357Z,50.82
2023-01-18T16:58:55.880Z,50.96
2023-01-18T17:01:22.527Z,50.96
2023-01-18T17:03:50.836Z,50.80
2023-01-18T17:06:20.809Z,50.98
2023-01-18T17:08:49.102Z,50.96
2023-01-18T17:11:15.682Z,51.10
2023-01-18T17:13:42.189Z,51.12
2023-01-18T17:16:16.963Z,51.20
2023-01-18T17:18:43.876Z,51.27
2023-01-18T17:21:11.581Z,51.30
2023-01-18T17:23:39.846Z,51.10
2023-01-18T17:26:07.825Z,51.32
2023-01-18T17:28:34.434Z,51.35
2023-01-18T17:31:01.342Z,51.28
2023-01-18T17:33:28.409Z,51.48
2023-01-18T17:35:55.458Z,51.56
2023-01-18T17:38:24.365Z,51.54
2023-01-18T17:40:51.916Z,51.70
2023-01-18T17:43:28.422Z,51.73
2023-01-18T17:46:02.549Z,51.74
2023-01-18T17:48:29.204Z,51.83
2023-01-18T17:50:55.972Z,51.78
2023-01-18T17:53:22.686Z,52.08
2023-01-18T17:55:52.583Z,52.19
2023-01-18T17:58:19.077Z,52.26
2023-01-18T18:00:45.633Z,52.22
2023-01-18T18:03:13.051Z,52.39
2023-01-18T18:05:39.724Z,52.43
2023-01-18T18:08:07.582Z,52.54
2023-01-18T18:10:34.121Z,52.68
2023-01-18T18:13:01.246Z,52.47
2023-01-18T18:15:28.334Z,52.63
2023-01-18T18:17:54.846Z,52.58
2023-01-18T18:20:22.758Z,52.69
2023-01-18T18:22:49.483Z,52.72
2023-01-18T18:25:16.169Z,52.63
2023-01-18T18:27:46.856Z,52.70
2023-01-18T18:30:14.899Z,52.62
2023-01-18T18:32:41.752Z,52.93
2023-01-18T18:35:23.840Z,52.80
2023-01-18T18:37:53.482Z,52.71
2023-01-18T18:40:20.526Z,52.86
2023-01-18T18:43:00.726Z,52.89
2023-01-18T18:45:29.461Z,52.91
2023-01-18T18:47:55.950Z,52.88
2023-01-18T18:50:22.483Z,52.94
2023-01-18T18:52:49.032Z,53.14
2023-01-18T18:55:15.701Z,52.94
2023-01-18T18:57:42.297Z,52.98
2023-01-18T19:00:09.511Z,53.12
2023-01-18T19:02:36.151Z,53.05
2023-01-18T19:05:03.549Z,53.11
2023-01-18T19:07:30.115Z,53.02
2023-01-18T19:09:56.686Z,53.00
2023-01-18T19:12:23.248Z,52.96
2023-01-18T19:14:49.828Z,53.01
2023-01-18T19:17:28.861Z,53.03
2023-01-18T19:19:56.232Z,53.04
2023-01-18T19:22:22.755Z,53.04
2023-01-18T19:24:49.391Z,53.40
2023-01-18T19:27:16.578Z,52.98
2023-01-18T19:29:43.190Z,53.15
2023-01-18T19:32:10.022Z,53.12
2023-01-18T19:34:39.602Z,53.24
2023-01-18T19:37:06.783Z,53.12
2023-01-18T19:39:34.812Z,53.20
2023-01-18T19:42:02.375Z,53.24
2023-01-18T19:44:29.082Z,53.34
2023-01-18T19:46:56.955Z,53.43
2023-01-18T19:49:25.578Z,53.79
2023-01-18T19:51:52.891Z,53.50
2023-01-18T19:54:19.426Z,53.60
2023-01-18T19:56:46.452Z,53.85
2023-01-18T19:59:14.476Z,53.71
2023-01-18T20:01:41.146Z,53.70
2023-01-18T20:04:08.644Z,53.79
2023-01-18T20:06:38.241Z,53.70
2023-01-18T20:09:15.780Z,53.90
2023-01-18T20:11:45.396Z,54.14
2023-01-18T20:14:12.843Z,54.15
2023-01-18T20:16:39.735Z,54.01
2023-01-18T20:19:06.432Z,54.14
2023-01-18T20:21:32.946Z,54.33
2023-01-18T20:23:59.527Z,54.25
2023-01-18T20:26:36.075Z,54.22
2023-01-18T20:29:07.327Z,54.23
2023-01-18T20:31:38.131Z,54.33
2023-01-18T20:34:05.726Z,54.47
2023-01-18T20:36:34.880Z,54.34
2023-01-18T20:39:02.279Z,54.22
2023-01-18T20:41:28.929Z,54.36
2023-01-18T20:43:55.432Z,54.25
2023-01-18T20:46:22.286Z,54.29
2023-01-18T20:48:49.620Z,54.18
2023-01-18T20:51:17.896Z,54.20
2023-01-18T20:53:44.659Z,54.07
2023-01-18T20:56:27.742Z,54.24
2023-01-18T20:58:55.244Z,54.08
2023-01-18T21:01:21.947Z,54.13
2023-01-18T21:03:54.487Z,54.12
2023-01-18T21:06:21.293Z,54.16
2023-01-18T21:08:47.823Z,54.16
2023-01-18T21:11:17.548Z,53.73
2023-01-18T21:13:44.491Z,54.22
2023-01-18T21:16:11.181Z,54.20
2023-01-18T21:18:39.430Z,54.41
2023-01-18T21:21:07.366Z,54.38
2023-01-18T21:23:39.206Z,54.36
2023-01-18T21:26:12.029Z,54.25
2023-01-18T21:28:39.215Z,54.30
2023-01-18T21:31:06.642Z,54.22
2023-01-18T21:33:33.777Z,54.40
2023-01-18T21:36:15.311Z,54.32
2023-01-18T21:38:41.969Z,54.28
2023-01-18T21:41:27.368Z,54.56
2023-01-18T21:44:12.859Z,54.60
2023-01-18T21:46:48.067Z,54.50
2023-01-18T21:49:47.162Z,54.55
2023-01-18T21:52:38.151Z,54.52
2023-01-18T21:55:04.890Z,54.50
2023-01-18T21:57:31.388Z,54.63
2023-01-18T21:59:57.961Z,54.66
2023-01-18T22:02:24.769Z,54.75
2023-01-18T22:04:58.978Z,54.75
2023-01-18T22:07:30.176Z,54.83
2023-01-18T22:10:05.197Z,54.87
2023-01-18T22:12:34.936Z,55.00
2023-01-18T22:15:02.258Z,54.93
2023-01-18T22:18:31.902Z,54.98
2023-01-18T22:20:58.630Z,55.02
2023-01-18T22:23:25.130Z,55.15
2023-01-18T22:25:55.281Z,55.10
2023-01-18T22:28:31.913Z,55.02
2023-01-18T22:30:58.877Z,54.92
2023-01-18T22:33:25.413Z,55.04
2023-01-18T22:35:57.666Z,55.11
2023-01-18T22:38:24.417Z,55.32
2023-01-18T22:41:00.302Z,55.09
2023-01-18T22:43:26.904Z,55.23
2023-01-18T22:45:56.876Z,55.24
2023-01-18T22:48:23.696Z,55.17
2023-01-18T22:50:58.674Z,55.22
2023-01-18T22:53:27.257Z,55.34
2023-01-18T22:55:55.231Z,55.35
2023-01-18T22:58:21.791Z,55.38
2023-01-18T23:00:49.046Z,55.54
2023-01-18T23:03:17.363Z,55.34
2023-01-18T23:05:55.998Z,55.57
2023-01-18T23:08:24.026Z,55.41
2023-01-18T23:10:56.795Z,55.60
2023-01-18T23:13:23.619Z,55.63
2023-01-18T23:16:08.902Z,55.77
2023-01-18T23:18:35.455Z,55.76
2023-01-18T23:21:02.037Z,55.90
2023-01-18T23:23:28.558Z,55.88
2023-01-18T23:25:56.307Z,56.06
2023-01-18T23:28:41.451Z,55.99
2023-01-18T23:31:07.920Z,56.03
2023-01-18T23:33:34.566Z,56.15
2023-01-18T23:36:01.047Z,56.17
2023-01-18T23:38:27.523Z,56.16
2023-01-18T23:41:14.090Z,56.35
2023-01-18T23:43:59.722Z,56.39
2023-01-18T23:46:44.687Z,56.35
2023-01-18T23:49:29.806Z,56.38
2023-01-18T23:52:15.034Z,56.46
2023-01-18T23:54:41.641Z,56.58
2023-01-18T23:57:08.161Z,56.65
2023-01-18T23:59:34.781Z,56.58
